Terminal Aerodrome Forecast
Issued by NWS

Home | Current Version | Previous Version | Text Only | Print | Product List | Glossary On
Versions: 1 2 3 4 5 6 7 8 9 10 11 12 13 14
000
FTUS45 KRIW 282300
TAFCPR
TAF
KCPR 282340Z 2900/2924 24015G24KT P6SM SCT200
     FM290200 23008KT P6SM SCT200
     FM290900 22014G22KT P6SM SKC
     FM291200 22018G32KT P6SM FEW100
     FM291900 25020G33KT P6SM SCT070=

USA.gov is the U.S. government's official web portal to all federal, state and local government web resources and services.